Time;durP1;ratioP1;P1;durP2;ratioP2;P2;SDS_P1;SDS_P2;PMS_P1;PMS_P2;Temp;Humidity;BMP_temperature;BMP_pressure;BME280_temperature;BME280_humidity;BME280_pressure;Samples;Min_cycle;Max_cycle;Signal;HPM_P1;HPM_P2
2022/02/24 00:00:13;;;;;;;7.40;3.75;;;;;;;;;;143729;601;46021;-66
2022/02/24 00:02:41;;;;;;;10.25;4.03;;;;;;;;;;143726;597;46020;-66
2022/02/24 00:05:09;;;;;;;6.95;3.72;;;;;;;;;;143726;588;46012;-66
2022/02/24 00:07:35;;;;;;;8.20;3.72;;;;;;;;;;143729;569;45021;-66
2022/02/24 00:10:06;;;;;;;7.70;3.97;;;;;;;;;;143729;569;46020;-66
2022/02/24 00:12:33;;;;;;;7.00;4.10;;;;;;;;;;143726;593;46020;-66
2022/02/24 00:15:00;;;;;;;7.10;3.55;;;;;;;;;;143725;663;46012;-66
2022/02/24 00:17:27;;;;;;;7.25;3.70;;;;;;;;;;143728;585;45020;-66
2022/02/24 00:19:54;;;;;;;7.57;3.75;;;;;;;;;;143730;627;46020;-66
2022/02/24 00:22:21;;;;;;;7.40;3.83;;;;;;;;;;143725;618;46023;-66
2022/02/24 00:24:49;;;;;;;7.45;3.80;;;;;;;;;;143725;564;46012;-67
2022/02/24 00:27:15;;;;;;;8.30;3.75;;;;;;;;;;143728;600;45020;-66
2022/02/24 00:29:42;;;;;;;5.45;3.60;;;;;;;;;;143727;639;46021;-67
2022/02/24 00:32:09;;;;;;;9.93;4.15;;;;;;;;;;143728;615;46020;-66
2022/02/24 00:34:36;;;;;;;9.20;3.83;;;;;;;;;;143724;603;47012;-66
2022/02/24 00:37:04;;;;;;;8.52;4.50;;;;;;;;;;143729;636;45021;-66
2022/02/24 00:39:31;;;;;;;9.32;4.50;;;;;;;;;;143729;607;46020;-66
2022/02/24 00:41:58;;;;;;;8.30;3.90;;;;;;;;;;143727;569;46020;-66
2022/02/24 00:44:25;;;;;;;10.07;4.03;;;;;;;;;;143725;638;46012;-66
2022/02/24 00:46:52;;;;;;;6.40;4.07;;;;;;;;;;143729;583;45020;-66
2022/02/24 00:49:20;;;;;;;12.43;4.40;;;;;;;;;;143725;618;46020;-66
2022/02/24 00:51:47;;;;;;;10.13;4.70;;;;;;;;;;143727;571;46023;-66
2022/02/24 00:54:15;;;;;;;9.25;4.18;;;;;;;;;;143725;607;46012;-66
2022/02/24 00:56:42;;;;;;;7.53;3.97;;;;;;;;;;143729;607;45020;-66
2022/02/24 00:59:09;;;;;;;10.35;4.15;;;;;;;;;;143727;614;46021;-66
2022/02/24 01:01:37;;;;;;;11.18;4.45;;;;;;;;;;143726;567;46020;-66
2022/02/24 01:04:04;;;;;;;5.95;3.83;;;;;;;;;;143725;601;46012;-65
2022/02/24 01:06:31;;;;;;;7.10;3.92;;;;;;;;;;143728;632;45021;-66
2022/02/24 01:08:58;;;;;;;10.45;4.15;;;;;;;;;;143729;591;46020;-66
2022/02/24 01:11:25;;;;;;;15.00;4.35;;;;;;;;;;143726;569;46022;-66
2022/02/24 01:13:52;;;;;;;7.22;3.60;;;;;;;;;;143725;566;46013;-66
2022/02/24 01:16:19;;;;;;;6.95;3.75;;;;;;;;;;143726;602;46018;-66
2022/02/24 01:18:46;;;;;;;6.05;3.50;;;;;;;;;;143729;638;45020;-66
2022/02/24 01:21:13;;;;;;;5.55;3.37;;;;;;;;;;143726;594;46021;-66
2022/02/24 01:23:40;;;;;;;8.70;4.20;;;;;;;;;;143725;616;46012;-66
2022/02/24 01:26:08;;;;;;;7.80;4.03;;;;;;;;;;143728;590;45020;-66
2022/02/24 01:28:35;;;;;;;7.03;3.83;;;;;;;;;;143728;658;46021;-66
2022/02/24 01:31:02;;;;;;;7.85;3.95;;;;;;;;;;143727;578;46045;-66
2022/02/24 01:33:29;;;;;;;5.47;3.45;;;;;;;;;;143725;579;46012;-65
2022/02/24 01:35:57;;;;;;;5.75;3.50;;;;;;;;;;143729;664;45021;-66
2022/02/24 01:38:24;;;;;;;10.27;4.00;;;;;;;;;;143728;583;46020;-66
2022/02/24 01:40:51;;;;;;;6.90;3.87;;;;;;;;;;143726;566;46020;-66
2022/02/24 01:43:18;;;;;;;7.40;3.92;;;;;;;;;;143725;595;46012;-66
2022/02/24 01:45:45;;;;;;;5.55;3.67;;;;;;;;;;143728;569;45021;-66
2022/02/24 01:48:12;;;;;;;8.43;4.22;;;;;;;;;;143729;655;46020;-66
2022/02/24 01:50:39;;;;;;;6.35;3.83;;;;;;;;;;143727;576;46021;-66
2022/02/24 01:53:07;;;;;;;8.02;4.32;;;;;;;;;;143725;584;46012;-66
2022/02/24 01:55:34;;;;;;;5.97;3.92;;;;;;;;;;143727;612;45020;-66
2022/02/24 01:58:01;;;;;;;6.78;3.87;;;;;;;;;;143728;632;46021;-66
2022/02/24 02:00:28;;;;;;;8.45;4.15;;;;;;;;;;143726;577;46020;-66
2022/02/24 02:02:55;;;;;;;6.28;4.12;;;;;;;;;;143725;578;46012;-65
2022/02/24 02:05:22;;;;;;;8.40;4.57;;;;;;;;;;143728;569;45021;-65
2022/02/24 02:07:50;;;;;;;8.13;4.50;;;;;;;;;;143727;626;46020;-66
2022/02/24 02:10:17;;;;;;;7.90;4.55;;;;;;;;;;143727;570;46020;-66
2022/02/24 02:12:53;;;;;;;8.10;4.50;;;;;;;;;;143725;600;46012;-66
2022/02/24 02:15:20;;;;;;;6.78;4.18;;;;;;;;;;143729;603;46012;-66
2022/02/24 02:17:47;;;;;;;6.72;4.30;;;;;;;;;;143729;618;46020;-66
2022/02/24 02:20:15;;;;;;;6.78;4.35;;;;;;;;;;143727;643;46021;-65
2022/02/24 02:22:43;;;;;;;5.30;4.07;;;;;;;;;;143725;640;46012;-66
2022/02/24 02:25:11;;;;;;;5.45;4.40;;;;;;;;;;143727;621;46014;-65
2022/02/24 02:27:39;;;;;;;5.78;4.07;;;;;;;;;;143727;619;46021;-66
2022/02/24 02:30:08;;;;;;;12.00;4.50;;;;;;;;;;143726;598;46020;-66
2022/02/24 02:32:35;;;;;;;9.15;4.72;;;;;;;;;;143725;565;46012;-66
2022/02/24 02:35:02;;;;;;;8.80;4.32;;;;;;;;;;143730;595;45021;-65
2022/02/24 02:37:29;;;;;;;7.87;4.47;;;;;;;;;;143729;631;46020;-66
2022/02/24 02:39:56;;;;;;;5.95;4.03;;;;;;;;;;143726;592;46022;-66
2022/02/24 02:42:23;;;;;;;9.10;4.35;;;;;;;;;;143725;576;46013;-66
2022/02/24 02:44:50;;;;;;;7.97;4.62;;;;;;;;;;143729;566;45021;-65
2022/02/24 02:47:17;;;;;;;6.78;4.28;;;;;;;;;;143727;589;46020;-66
2022/02/24 02:49:44;;;;;;;9.85;4.47;;;;;;;;;;143727;611;46021;-66
2022/02/24 02:52:12;;;;;;;10.18;4.28;;;;;;;;;;143725;649;46012;-66
2022/02/24 02:54:39;;;;;;;7.50;4.25;;;;;;;;;;143728;575;45020;-66
2022/02/24 02:57:06;;;;;;;12.85;4.80;;;;;;;;;;143729;577;46021;-65
2022/02/24 02:59:34;;;;;;;10.95;4.07;;;;;;;;;;143726;582;46020;-65
2022/02/24 03:02:01;;;;;;;6.18;3.65;;;;;;;;;;143724;573;46012;-66
2022/02/24 03:04:28;;;;;;;11.82;4.65;;;;;;;;;;143729;705;45021;-65
2022/02/24 03:06:55;;;;;;;8.05;4.68;;;;;;;;;;143729;609;46020;-66
2022/02/24 03:09:21;;;;;;;6.68;4.70;;;;;;;;;;143727;589;46020;-65
2022/02/24 03:11:49;;;;;;;7.50;4.32;;;;;;;;;;143724;576;46013;-66
2022/02/24 03:14:15;;;;;;;9.40;4.45;;;;;;;;;;143729;610;45021;-66
2022/02/24 03:16:42;;;;;;;8.82;4.57;;;;;;;;;;143727;650;46020;-66
2022/02/24 03:19:11;;;;;;;6.55;4.50;;;;;;;;;;143727;627;46021;-66
2022/02/24 03:21:38;;;;;;;9.05;5.60;;;;;;;;;;143726;585;46013;-66
2022/02/24 03:24:06;;;;;;;5.90;3.92;;;;;;;;;;143728;606;46012;-66
2022/02/24 03:26:33;;;;;;;6.40;3.97;;;;;;;;;;143729;651;46020;-65
2022/02/24 03:29:00;;;;;;;6.57;4.18;;;;;;;;;;143725;626;46021;-65
2022/02/24 03:31:27;;;;;;;8.73;4.47;;;;;;;;;;143725;579;46012;-66
2022/02/24 03:33:56;;;;;;;7.00;4.05;;;;;;;;;;143729;646;45020;-65
2022/02/24 03:36:23;;;;;;;6.12;4.32;;;;;;;;;;143729;573;46021;-65
2022/02/24 03:38:50;;;;;;;9.23;4.10;;;;;;;;;;143725;624;47020;-66
2022/02/24 03:41:17;;;;;;;6.22;3.80;;;;;;;;;;143724;576;46012;-65
2022/02/24 03:43:44;;;;;;;6.93;4.20;;;;;;;;;;143729;577;45021;-66
2022/02/24 03:46:11;;;;;;;13.88;4.78;;;;;;;;;;143727;622;46020;-65
2022/02/24 03:48:39;;;;;;;10.65;4.75;;;;;;;;;;143727;635;46021;-65
2022/02/24 03:51:06;;;;;;;9.75;4.03;;;;;;;;;;143725;581;46013;-66
2022/02/24 03:53:32;;;;;;;5.35;4.00;;;;;;;;;;143727;647;45020;-66
2022/02/24 03:55:59;;;;;;;6.40;4.20;;;;;;;;;;143728;609;46020;-66
2022/02/24 03:58:27;;;;;;;7.00;4.43;;;;;;;;;;143726;621;46020;-66
2022/02/24 04:00:54;;;;;;;7.82;4.00;;;;;;;;;;143725;608;46012;-66
2022/02/24 04:03:21;;;;;;;7.12;3.97;;;;;;;;;;143728;661;45020;-65
2022/02/24 04:05:47;;;;;;;6.15;3.58;;;;;;;;;;143728;582;46021;-66
2022/02/24 04:08:15;;;;;;;6.50;4.00;;;;;;;;;;143727;573;46020;-65
2022/02/24 04:10:42;;;;;;;8.23;4.10;;;;;;;;;;143725;656;46012;-65
2022/02/24 04:13:08;;;;;;;12.85;4.30;;;;;;;;;;143730;641;45021;-66
2022/02/24 04:15:39;;;;;;;6.75;3.92;;;;;;;;;;143728;576;46020;-66
2022/02/24 04:18:06;;;;;;;9.90;4.40;;;;;;;;;;143725;577;46022;-65
2022/02/24 04:20:33;;;;;;;9.73;4.62;;;;;;;;;;143724;647;46012;-66
2022/02/24 04:23:01;;;;;;;7.47;3.95;;;;;;;;;;143729;591;45020;-65
2022/02/24 04:25:28;;;;;;;6.85;4.30;;;;;;;;;;143730;619;46020;-66
2022/02/24 04:27:55;;;;;;;7.75;4.18;;;;;;;;;;143727;658;46022;-66
2022/02/24 04:30:22;;;;;;;8.73;4.90;;;;;;;;;;143726;602;46012;-66
2022/02/24 04:32:50;;;;;;;10.00;4.22;;;;;;;;;;143729;590;45020;-66
2022/02/24 04:35:17;;;;;;;9.75;4.43;;;;;;;;;;143730;591;46021;-65
2022/02/24 04:37:44;;;;;;;7.82;4.32;;;;;;;;;;143726;602;46020;-66
2022/02/24 04:40:12;;;;;;;7.05;4.15;;;;;;;;;;143726;625;46012;-65
2022/02/24 04:42:39;;;;;;;7.57;3.75;;;;;;;;;;143729;649;45021;-66
2022/02/24 04:45:07;;;;;;;7.05;4.20;;;;;;;;;;143727;582;46020;-66
2022/02/24 04:47:34;;;;;;;5.55;3.72;;;;;;;;;;143726;668;46022;-65
2022/02/24 04:50:02;;;;;;;7.60;3.80;;;;;;;;;;143726;589;46012;-66
2022/02/24 04:52:30;;;;;;;6.57;3.92;;;;;;;;;;143730;571;45020;-65
2022/02/24 04:54:57;;;;;;;9.48;3.80;;;;;;;;;;143729;635;46020;-65
2022/02/24 04:57:23;;;;;;;9.40;3.90;;;;;;;;;;143728;660;46020;-65
2022/02/24 04:59:50;;;;;;;6.78;4.35;;;;;;;;;;143725;574;46012;-65
2022/02/24 05:02:23;;;;;;;6.87;4.22;;;;;;;;;;143876;582;46014;-65
2022/02/24 05:04:51;;;;;;;10.27;3.78;;;;;;;;;;143750;594;46020;-65
2022/02/24 05:07:18;;;;;;;7.35;3.90;;;;;;;;;;143749;631;46021;-65
2022/02/24 05:09:45;;;;;;;7.55;3.80;;;;;;;;;;143746;576;46012;-64
2022/02/24 05:12:12;;;;;;;5.68;3.80;;;;;;;;;;143751;584;45020;-64
2022/02/24 05:14:39;;;;;;;7.72;3.72;;;;;;;;;;143751;613;46021;-65
2022/02/24 05:17:06;;;;;;;5.22;3.50;;;;;;;;;;143749;580;46020;-65
2022/02/24 05:19:33;;;;;;;8.50;3.47;;;;;;;;;;143746;570;46012;-65
2022/02/24 05:22:00;;;;;;;12.63;3.67;;;;;;;;;;143749;569;45021;-65
2022/02/24 05:24:28;;;;;;;10.90;3.92;;;;;;;;;;143750;668;46021;-65
2022/02/24 05:26:55;;;;;;;7.37;3.15;;;;;;;;;;143748;620;46022;-65
2022/02/24 05:29:22;;;;;;;11.68;3.90;;;;;;;;;;143747;574;46013;-65
2022/02/24 05:31:48;;;;;;;6.12;3.40;;;;;;;;;;143750;579;45021;-65
2022/02/24 05:34:15;;;;;;;4.85;3.35;;;;;;;;;;143750;648;46020;-65
2022/02/24 05:36:43;;;;;;;4.20;3.15;;;;;;;;;;143749;614;47021;-65
2022/02/24 05:39:11;;;;;;;7.22;3.60;;;;;;;;;;143744;566;47012;-66
2022/02/24 05:41:38;;;;;;;5.82;2.75;;;;;;;;;;143750;604;45020;-66
2022/02/24 05:44:05;;;;;;;6.78;3.20;;;;;;;;;;143751;586;46020;-65
2022/02/24 05:46:32;;;;;;;10.77;3.28;;;;;;;;;;143749;617;46020;-65
2022/02/24 05:49:00;;;;;;;7.93;3.05;;;;;;;;;;143744;597;47917;-65
2022/02/24 05:51:27;;;;;;;9.85;3.60;;;;;;;;;;143749;596;45021;-65
2022/02/24 05:53:54;;;;;;;11.25;4.03;;;;;;;;;;143752;604;46021;-65
2022/02/24 05:56:21;;;;;;;14.18;4.60;;;;;;;;;;143750;602;46020;-66
2022/02/24 05:58:48;;;;;;;4.43;2.97;;;;;;;;;;143746;585;46013;-65
2022/02/24 06:01:15;;;;;;;5.90;2.95;;;;;;;;;;143744;606;45021;-65
2022/02/24 06:03:42;;;;;;;5.53;3.15;;;;;;;;;;143740;591;46020;-65
2022/02/24 06:06:09;;;;;;;6.30;3.45;;;;;;;;;;143738;611;46021;-65
2022/02/24 06:08:36;;;;;;;6.55;2.83;;;;;;;;;;143734;571;46021;-66
2022/02/24 06:11:03;;;;;;;8.68;2.87;;;;;;;;;;143737;600;45020;-65
2022/02/24 06:13:30;;;;;;;5.62;3.10;;;;;;;;;;143738;564;46021;-66
2022/02/24 06:15:57;;;;;;;8.93;3.80;;;;;;;;;;143737;570;46023;-65
2022/02/24 06:18:24;;;;;;;5.45;2.67;;;;;;;;;;143737;614;46012;-66
2022/02/24 06:20:51;;;;;;;6.93;3.08;;;;;;;;;;143736;582;45020;-66
2022/02/24 06:23:18;;;;;;;6.03;2.95;;;;;;;;;;143740;573;46021;-66
2022/02/24 06:25:46;;;;;;;4.47;3.20;;;;;;;;;;143737;564;47020;-66
2022/02/24 06:28:13;;;;;;;9.02;2.95;;;;;;;;;;143734;571;46012;-65
2022/02/24 06:30:40;;;;;;;7.53;3.03;;;;;;;;;;143734;576;47012;-66
2022/02/24 06:33:07;;;;;;;4.62;2.75;;;;;;;;;;143742;591;46020;-65
2022/02/24 06:35:34;;;;;;;7.93;2.62;;;;;;;;;;143736;650;46022;-67
2022/02/24 06:38:02;;;;;;;8.40;3.20;;;;;;;;;;143737;628;46012;-65
2022/02/24 06:40:30;;;;;;;4.45;3.00;;;;;;;;;;143740;615;45020;-66
2022/02/24 06:42:58;;;;;;;3.95;2.70;;;;;;;;;;143742;574;46020;-66
2022/02/24 06:45:26;;;;;;;7.35;3.15;;;;;;;;;;143742;572;46021;-67
2022/02/24 06:47:53;;;;;;;7.37;3.20;;;;;;;;;;143738;579;46012;-66
2022/02/24 06:50:19;;;;;;;6.80;3.25;;;;;;;;;;143738;590;45020;-67
2022/02/24 06:52:47;;;;;;;8.77;3.10;;;;;;;;;;143738;590;46021;-68
2022/02/24 06:55:14;;;;;;;4.03;3.03;;;;;;;;;;143741;576;46020;-68
2022/02/24 06:57:46;;;;;;;4.78;2.92;;;;;;;;;;143739;620;46013;-65
2022/02/24 07:00:15;;;;;;;5.97;2.90;;;;;;;;;;143737;645;45021;-68
2022/02/24 07:02:42;;;;;;;7.45;2.75;;;;;;;;;;143743;633;46020;-68
2022/02/24 07:05:10;;;;;;;7.35;3.15;;;;;;;;;;143739;569;46020;-69
2022/02/24 07:07:37;;;;;;;9.18;3.10;;;;;;;;;;143737;618;46917;-69
2022/02/24 07:10:08;;;;;;;7.00;3.10;;;;;;;;;;143736;571;45020;-68
2022/02/24 07:12:36;;;;;;;9.95;3.28;;;;;;;;;;143738;566;46020;-70
2022/02/24 07:15:05;;;;;;;9.48;3.10;;;;;;;;;;143739;571;46020;-70
2022/02/24 07:17:32;;;;;;;5.97;3.25;;;;;;;;;;143735;710;46012;-69
2022/02/24 07:19:59;;;;;;;9.23;2.45;;;;;;;;;;143738;577;45047;-71
2022/02/24 07:22:26;;;;;;;18.30;4.37;;;;;;;;;;143739;604;46021;-71
2022/02/24 07:24:53;;;;;;;20.80;8.50;;;;;;;;;;143741;589;46020;-70
2022/02/24 07:27:20;;;;;;;21.73;8.00;;;;;;;;;;143739;579;46012;-70
2022/02/24 07:29:47;;;;;;;10.27;4.50;;;;;;;;;;143738;577;45021;-71
2022/02/24 07:32:15;;;;;;;12.20;5.07;;;;;;;;;;143738;592;46020;-71
2022/02/24 07:34:42;;;;;;;8.85;3.80;;;;;;;;;;143735;581;46020;-70
2022/02/24 07:37:09;;;;;;;11.85;5.95;;;;;;;;;;143737;589;46013;-70
2022/02/24 07:39:36;;;;;;;9.98;3.10;;;;;;;;;;143735;611;45020;-71
2022/02/24 07:42:03;;;;;;;3.97;2.20;;;;;;;;;;143739;571;46020;-71
2022/02/24 07:44:30;;;;;;;9.70;4.45;;;;;;;;;;143741;615;46021;-71
2022/02/24 07:46:57;;;;;;;22.77;11.73;;;;;;;;;;143739;700;46012;-71
2022/02/24 07:49:25;;;;;;;25.08;12.25;;;;;;;;;;143737;596;45020;-71
2022/02/24 07:51:53;;;;;;;12.57;5.00;;;;;;;;;;143738;571;46021;-70
2022/02/24 07:54:22;;;;;;;10.13;5.18;;;;;;;;;;143737;571;46020;-70
2022/02/24 07:56:52;;;;;;;9.13;4.78;;;;;;;;;;143735;582;46012;-69
2022/02/24 07:59:20;;;;;;;11.45;5.12;;;;;;;;;;143738;586;45037;-68
2022/02/24 08:01:48;;;;;;;12.10;5.62;;;;;;;;;;143740;565;46020;-66
2022/02/24 08:04:15;;;;;;;8.25;3.42;;;;;;;;;;143736;611;46020;-67
2022/02/24 08:06:42;;;;;;;7.10;3.08;;;;;;;;;;143739;603;46010;-66
2022/02/24 08:09:10;;;;;;;9.32;3.17;;;;;;;;;;143738;591;45020;-66
2022/02/24 08:11:37;;;;;;;6.72;3.03;;;;;;;;;;143740;565;46020;-66
2022/02/24 08:14:05;;;;;;;5.68;2.80;;;;;;;;;;143738;573;46021;-65
2022/02/24 08:16:32;;;;;;;13.52;3.30;;;;;;;;;;143737;571;46010;-65
2022/02/24 08:19:00;;;;;;;8.88;3.30;;;;;;;;;;143738;564;45020;-68
2022/02/24 08:21:27;;;;;;;8.70;2.65;;;;;;;;;;143742;596;46021;-68
2022/02/24 08:23:55;;;;;;;8.27;3.47;;;;;;;;;;143738;589;47020;-67
2022/02/24 08:26:22;;;;;;;7.45;3.22;;;;;;;;;;143738;573;46010;-68
2022/02/24 08:28:50;;;;;;;27.37;4.47;;;;;;;;;;143738;697;45021;-69
2022/02/24 08:31:17;;;;;;;6.65;2.87;;;;;;;;;;143739;569;46020;-67
2022/02/24 08:33:44;;;;;;;3.62;2.62;;;;;;;;;;143739;611;46020;-68
2022/02/24 08:36:11;;;;;;;8.68;2.65;;;;;;;;;;143736;627;46011;-68
2022/02/24 08:38:38;;;;;;;8.85;3.37;;;;;;;;;;143737;581;45020;-68
2022/02/24 08:41:05;;;;;;;9.25;3.65;;;;;;;;;;143739;631;46020;-67
2022/02/24 08:43:32;;;;;;;5.00;2.70;;;;;;;;;;143739;570;46021;-68
2022/02/24 08:45:59;;;;;;;5.28;2.33;;;;;;;;;;143738;583;46010;-68
2022/02/24 08:48:26;;;;;;;7.87;3.47;;;;;;;;;;143738;573;45020;-68
2022/02/24 08:50:53;;;;;;;9.82;3.72;;;;;;;;;;143741;564;46021;-65
2022/02/24 08:53:21;;;;;;;5.90;2.95;;;;;;;;;;143738;611;46020;-67
2022/02/24 08:55:48;;;;;;;9.60;3.05;;;;;;;;;;143733;577;46010;-67
2022/02/24 08:58:16;;;;;;;7.00;2.95;;;;;;;;;;143740;639;45021;-67
2022/02/24 09:00:47;;;;;;;7.22;3.10;;;;;;;;;;143740;627;46021;-68
2022/02/24 09:03:18;;;;;;;10.02;3.37;;;;;;;;;;143734;678;46020;-67
2022/02/24 09:05:45;;;;;;;5.40;3.30;;;;;;;;;;143736;579;46010;-67
2022/02/24 09:08:12;;;;;;;7.70;3.65;;;;;;;;;;143734;576;46010;-66
2022/02/24 09:10:40;;;;;;;6.57;3.03;;;;;;;;;;143737;581;46020;-65
2022/02/24 09:13:08;;;;;;;8.10;3.53;;;;;;;;;;143736;634;46042;-66
2022/02/24 09:15:36;;;;;;;6.85;3.40;;;;;;;;;;143736;571;46010;-66
2022/02/24 09:18:05;;;;;;;4.95;2.75;;;;;;;;;;143737;590;45020;-67
2022/02/24 09:20:32;;;;;;;5.35;3.08;;;;;;;;;;143735;603;46021;-67
2022/02/24 09:22:59;;;;;;;8.57;3.28;;;;;;;;;;143741;636;46020;-67
2022/02/24 09:25:26;;;;;;;7.28;3.05;;;;;;;;;;143735;750;46010;-67
2022/02/24 09:27:53;;;;;;;8.57;3.33;;;;;;;;;;143738;628;45021;-67
2022/02/24 09:30:20;;;;;;;6.10;3.25;;;;;;;;;;143740;677;46020;-67
2022/02/24 09:32:47;;;;;;;8.30;3.28;;;;;;;;;;143740;572;46020;-66
2022/02/24 09:35:15;;;;;;;8.60;3.25;;;;;;;;;;143735;736;46011;-66
2022/02/24 09:37:42;;;;;;;7.85;3.12;;;;;;;;;;143737;569;45021;-66
2022/02/24 09:40:11;;;;;;;11.77;3.58;;;;;;;;;;143738;597;46020;-66
2022/02/24 09:42:38;;;;;;;6.85;3.80;;;;;;;;;;143736;589;46022;-65
2022/02/24 09:45:06;;;;;;;7.95;3.25;;;;;;;;;;143737;579;46010;-65
2022/02/24 09:47:34;;;;;;;9.07;3.62;;;;;;;;;;143735;686;45020;-65
2022/02/24 09:50:02;;;;;;;8.60;3.95;;;;;;;;;;143740;684;46021;-65
2022/02/24 09:52:30;;;;;;;11.95;5.45;;;;;;;;;;143737;588;46020;-65
2022/02/24 09:54:57;;;;;;;8.13;3.37;;;;;;;;;;143737;585;46010;-65
2022/02/24 09:57:24;;;;;;;7.82;3.10;;;;;;;;;;143735;570;46020;-65
2022/02/24 09:59:50;;;;;;;8.90;2.92;;;;;;;;;;143736;621;46021;-66
2022/02/24 10:02:18;;;;;;;6.50;3.40;;;;;;;;;;143738;569;46020;-65
2022/02/24 10:05:07;;;;;;;8.73;3.28;;;;;;;;;;143729;571;47012;-66
2022/02/24 10:07:35;;;;;;;10.05;3.50;;;;;;;;;;143737;576;45021;-65
2022/02/24 10:10:25;;;;;;;18.48;3.95;;;;;;;;;;143738;564;46020;-66
2022/02/24 10:13:12;;;;;;;7.70;3.20;;;;;;;;;;143739;619;46022;-65
2022/02/24 10:15:41;;;;;;;7.87;2.85;;;;;;;;;;143737;579;46010;-66
2022/02/24 10:18:18;;;;;;;5.60;2.95;;;;;;;;;;143737;612;45020;-67
2022/02/24 10:20:48;;;;;;;6.20;3.15;;;;;;;;;;143741;592;46021;-66
2022/02/24 10:23:18;;;;;;;9.38;3.45;;;;;;;;;;143738;564;46022;-66
2022/02/24 10:25:59;;;;;;;6.53;2.40;;;;;;;;;;143738;692;46010;-67
2022/02/24 10:28:51;;;;;;;11.38;3.30;;;;;;;;;;143738;583;45021;-68
2022/02/24 10:31:26;;;;;;;11.45;4.35;;;;;;;;;;143739;595;46020;-67
2022/02/24 10:34:07;;;;;;;8.13;2.67;;;;;;;;;;143741;575;46020;-68
2022/02/24 10:36:36;;;;;;;4.97;2.80;;;;;;;;;;143735;652;46010;-67
2022/02/24 10:39:13;;;;;;;4.43;2.58;;;;;;;;;;143736;656;45020;-67
2022/02/24 10:41:42;;;;;;;6.72;2.80;;;;;;;;;;143739;589;46020;-67
2022/02/24 10:44:31;;;;;;;6.25;2.90;;;;;;;;;;143742;570;46020;-68
2022/02/24 10:47:15;;;;;;;7.62;3.50;;;;;;;;;;143737;602;46010;-68
2022/02/24 10:49:49;;;;;;;4.18;2.47;;;;;;;;;;143736;574;45908;-68
2022/02/24 10:52:22;;;;;;;10.05;2.70;;;;;;;;;;143740;598;46020;-68
2022/02/24 10:55:01;;;;;;;5.55;2.92;;;;;;;;;;143739;570;46022;-69
2022/02/24 10:57:29;;;;;;;4.85;2.62;;;;;;;;;;143738;654;46010;-66
2022/02/24 10:59:57;;;;;;;5.82;2.50;;;;;;;;;;143739;615;45021;-68
2022/02/24 11:02:28;;;;;;;7.05;2.85;;;;;;;;;;143750;610;46020;-67
2022/02/24 11:04:55;;;;;;;4.85;2.92;;;;;;;;;;143748;620;46021;-66
2022/02/24 11:07:23;;;;;;;6.85;2.42;;;;;;;;;;143746;582;46010;-67
2022/02/24 11:09:52;;;;;;;5.37;2.92;;;;;;;;;;143751;580;45020;-65
2022/02/24 11:12:23;;;;;;;6.22;2.58;;;;;;;;;;143750;574;46021;-67
2022/02/24 11:14:51;;;;;;;5.22;2.75;;;;;;;;;;143750;577;46020;-65
2022/02/24 11:17:19;;;;;;;17.05;9.75;;;;;;;;;;143745;573;46010;-67
2022/02/24 11:19:48;;;;;;;5.90;2.53;;;;;;;;;;143751;587;45021;-66
2022/02/24 11:22:15;;;;;;;9.93;3.83;;;;;;;;;;143750;637;46020;-66
2022/02/24 11:24:43;;;;;;;7.10;3.28;;;;;;;;;;143742;602;46020;-67
2022/02/24 11:27:51;;;;;;;4.20;2.45;;;;;;;;;;143745;641;46035;-65
2022/02/24 11:30:30;;;;;;;4.47;2.83;;;;;;;;;;143749;569;45020;-66
2022/02/24 11:32:57;;;;;;;6.87;3.22;;;;;;;;;;143751;588;46020;-65
2022/02/24 11:35:25;;;;;;;5.45;3.10;;;;;;;;;;143749;580;46021;-65
2022/02/24 11:38:11;;;;;;;10.40;3.20;;;;;;;;;;143750;570;46012;-65
2022/02/24 11:40:38;;;;;;;8.85;2.90;;;;;;;;;;143750;726;45020;-65
2022/02/24 11:43:23;;;;;;;7.37;4.47;;;;;;;;;;143749;592;46021;-66
2022/02/24 11:45:51;;;;;;;5.30;2.83;;;;;;;;;;143751;694;46020;-65
2022/02/24 11:48:34;;;;;;;6.60;3.33;;;;;;;;;;143747;571;46012;-65
2022/02/24 11:51:20;;;;;;;6.80;3.25;;;;;;;;;;143745;586;45021;-65
2022/02/24 11:53:49;;;;;;;6.35;3.30;;;;;;;;;;143753;584;46020;-65
2022/02/24 11:56:21;;;;;;;3.85;2.72;;;;;;;;;;143748;580;47020;-66
2022/02/24 11:58:55;;;;;;;8.65;2.90;;;;;;;;;;143747;572;46012;-65
2022/02/24 12:01:28;;;;;;;3.92;2.75;;;;;;;;;;143747;636;45020;-65
2022/02/24 12:04:04;;;;;;;8.60;2.75;;;;;;;;;;143738;743;46020;-65
2022/02/24 12:06:43;;;;;;;9.60;2.97;;;;;;;;;;143741;583;46021;-65
2022/02/24 12:09:23;;;;;;;7.10;3.42;;;;;;;;;;143738;564;46012;-66
2022/02/24 12:11:55;;;;;;;6.37;3.28;;;;;;;;;;143739;657;45021;-65
2022/02/24 12:14:42;;;;;;;9.60;5.28;;;;;;;;;;143742;608;46021;-65
2022/02/24 12:17:11;;;;;;;7.72;3.53;;;;;;;;;;143741;636;46048;-65
2022/02/24 12:19:58;;;;;;;5.65;3.12;;;;;;;;;;143739;604;46012;-65
2022/02/24 12:22:34;;;;;;;5.72;2.60;;;;;;;;;;143739;579;45021;-65
2022/02/24 12:25:13;;;;;;;8.00;3.20;;;;;;;;;;143743;571;46020;-65
2022/02/24 12:28:04;;;;;;;4.70;3.08;;;;;;;;;;143737;589;46023;-65
2022/02/24 12:30:37;;;;;;;8.68;4.03;;;;;;;;;;143739;631;46012;-65
2022/02/24 12:33:12;;;;;;;10.32;6.55;;;;;;;;;;143741;572;46020;-66
2022/02/24 12:35:45;;;;;;;7.50;3.97;;;;;;;;;;143741;583;46021;-65
2022/02/24 12:38:14;;;;;;;8.48;4.30;;;;;;;;;;143742;583;46020;-65
2022/02/24 12:40:44;;;;;;;6.82;3.70;;;;;;;;;;143736;580;46012;-64
2022/02/24 12:43:19;;;;;;;8.60;3.35;;;;;;;;;;143739;732;45021;-64
2022/02/24 12:45:48;;;;;;;8.23;3.40;;;;;;;;;;143741;571;46020;-65
2022/02/24 12:48:16;;;;;;;6.53;3.40;;;;;;;;;;143739;584;46050;-64
2022/02/24 12:50:48;;;;;;;5.62;2.78;;;;;;;;;;143736;706;46012;-65
2022/02/24 12:53:24;;;;;;;8.45;3.62;;;;;;;;;;143741;567;45020;-66
2022/02/24 12:55:55;;;;;;;8.32;3.85;;;;;;;;;;143740;570;46020;-65
2022/02/24 12:58:24;;;;;;;7.03;3.50;;;;;;;;;;143740;586;46023;-65
2022/02/24 13:00:56;;;;;;;5.37;2.83;;;;;;;;;;143736;582;46012;-65
2022/02/24 13:03:25;;;;;;;8.32;3.28;;;;;;;;;;143741;585;45020;-64
2022/02/24 13:05:58;;;;;;;6.60;3.00;;;;;;;;;;143744;570;46020;-65
2022/02/24 13:11:14;;;;;;;6.82;3.12;;;;;;;;;;143741;564;46021;-65
2022/02/24 13:13:41;;;;;;;5.80;3.40;;;;;;;;;;143741;566;45021;-65
2022/02/24 13:16:16;;;;;;;5.65;3.28;;;;;;;;;;143741;571;46020;-65
2022/02/24 13:18:45;;;;;;;4.53;2.80;;;;;;;;;;143736;625;46022;-65
2022/02/24 13:21:13;;;;;;;7.12;3.17;;;;;;;;;;143736;649;46012;-65
2022/02/24 13:23:43;;;;;;;5.30;2.92;;;;;;;;;;143739;616;45020;-65
2022/02/24 13:26:10;;;;;;;3.97;2.53;;;;;;;;;;143740;567;46021;-65
2022/02/24 13:28:41;;;;;;;4.22;2.67;;;;;;;;;;143739;609;46021;-65
2022/02/24 13:31:15;;;;;;;3.45;2.53;;;;;;;;;;143737;587;46012;-65
2022/02/24 13:33:43;;;;;;;3.23;2.90;;;;;;;;;;143739;588;45021;-65
2022/02/24 13:36:11;;;;;;;5.80;3.40;;;;;;;;;;143741;576;46020;-65
2022/02/24 13:38:45;;;;;;;4.72;2.62;;;;;;;;;;143742;642;46020;-65
2022/02/24 13:41:14;;;;;;;4.80;3.00;;;;;;;;;;143739;614;46012;-64
2022/02/24 13:43:48;;;;;;;4.43;2.87;;;;;;;;;;143740;598;45021;-64
2022/02/24 13:46:18;;;;;;;6.37;3.40;;;;;;;;;;143742;584;46020;-65
2022/02/24 13:48:47;;;;;;;5.12;2.83;;;;;;;;;;143738;616;46021;-65
2022/02/24 13:51:19;;;;;;;5.70;2.67;;;;;;;;;;143736;713;46012;-65
2022/02/24 13:53:54;;;;;;;4.65;2.90;;;;;;;;;;143737;611;46020;-64
2022/02/24 13:56:23;;;;;;;4.12;2.65;;;;;;;;;;143741;592;46021;-65
2022/02/24 13:58:51;;;;;;;4.32;2.90;;;;;;;;;;143743;638;46020;-65
2022/02/24 14:01:26;;;;;;;5.93;3.35;;;;;;;;;;143739;619;46012;-64
2022/02/24 14:03:54;;;;;;;3.12;2.37;;;;;;;;;;143738;586;45021;-64
2022/02/24 14:06:23;;;;;;;2.95;2.65;;;;;;;;;;143742;594;46020;-65
2022/02/24 14:08:57;;;;;;;5.15;2.78;;;;;;;;;;143742;665;46020;-64
2022/02/24 14:11:30;;;;;;;6.63;2.60;;;;;;;;;;143736;625;46012;-65
2022/02/24 14:14:00;;;;;;;6.47;3.10;;;;;;;;;;143736;583;46021;-64
2022/02/24 14:16:30;;;;;;;5.18;2.58;;;;;;;;;;143740;569;46020;-65
2022/02/24 14:18:57;;;;;;;3.90;2.75;;;;;;;;;;143740;637;46021;-64
2022/02/24 14:21:24;;;;;;;7.68;3.08;;;;;;;;;;143738;571;46012;-65
2022/02/24 14:23:51;;;;;;;5.40;3.50;;;;;;;;;;143740;581;45020;-65
2022/02/24 14:26:20;;;;;;;3.58;2.65;;;;;;;;;;143739;579;46021;-66
2022/02/24 14:28:47;;;;;;;4.82;2.15;;;;;;;;;;143744;605;46020;-66
2022/02/24 14:31:16;;;;;;;5.25;3.03;;;;;;;;;;143736;666;46020;-65
2022/02/24 14:33:44;;;;;;;3.90;2.87;;;;;;;;;;143740;599;45021;-66
2022/02/24 14:36:11;;;;;;;5.00;2.67;;;;;;;;;;143740;596;46020;-65
2022/02/24 14:38:38;;;;;;;9.73;3.65;;;;;;;;;;143742;594;46020;-66
2022/02/24 14:41:06;;;;;;;3.35;2.65;;;;;;;;;;143737;625;46012;-66
2022/02/24 14:43:32;;;;;;;16.15;3.05;;;;;;;;;;143741;638;45020;-65
2022/02/24 14:45:59;;;;;;;6.72;2.47;;;;;;;;;;143741;624;46020;-65
2022/02/24 14:48:31;;;;;;;4.22;2.37;;;;;;;;;;143742;583;46021;-66
2022/02/24 14:50:59;;;;;;;4.07;2.47;;;;;;;;;;143734;592;46020;-65
2022/02/24 14:53:26;;;;;;;4.50;2.67;;;;;;;;;;143740;572;45020;-66